Time;durP1;ratioP1;P1;durP2;ratioP2;P2;SDS_P1;SDS_P2;PMS_P1;PMS_P2;Temp;Humidity;BMP_temperature;BMP_pressure;BME280_temperature;BME280_humidity;BME280_pressure;Samples;Min_cycle;Max_cycle;Signal;HPM_P1;HPM_P2
2020/12/22 00:00:14;;;;;;;22.90;2.53;;;3.00;99.90;;;;;;4981288;28;20235;-78
2020/12/22 00:02:47;;;;;;;26.55;2.78;;;2.90;99.90;;;;;;4979052;28;20200;-77
2020/12/22 00:05:13;;;;;;;21.60;2.40;;;2.90;99.90;;;;;;4978069;28;20254;-78
2020/12/22 00:07:40;;;;;;;8.82;3.00;;;2.80;99.90;;;;;;4978741;28;20240;-77
2020/12/22 00:10:07;;;;;;;7.47;2.53;;;2.80;99.90;;;;;;4978405;28;20918;-77
2020/12/22 00:12:33;;;;;;;9.50;2.13;;;2.70;99.90;;;;;;4975291;28;20520;-77
2020/12/22 00:15:00;;;;;;;21.10;2.55;;;2.70;99.90;;;;;;4980778;28;20689;-76
2020/12/22 00:17:26;;;;;;;20.77;2.55;;;2.70;99.90;;;;;;4983449;28;20227;-77
2020/12/22 00:19:52;;;;;;;21.65;3.30;;;2.70;99.90;;;;;;4978522;28;20206;-77
2020/12/22 00:22:18;;;;;;;23.67;3.22;;;2.80;99.90;;;;;;4981710;28;20203;-77
2020/12/22 00:24:44;;;;;;;23.48;3.47;;;2.90;99.90;;;;;;4990808;28;20203;-77
2020/12/22 00:27:10;;;;;;;20.58;3.00;;;2.90;99.90;;;;;;4980307;28;20200;-79
2020/12/22 00:29:36;;;;;;;17.35;3.05;;;3.00;99.90;;;;;;4980013;28;20211;-78
2020/12/22 00:32:02;;;;;;;30.48;3.70;;;3.10;99.90;;;;;;4980451;28;20196;-78
2020/12/22 00:34:29;;;;;;;29.17;3.28;;;3.10;99.90;;;;;;4979129;28;20215;-78
2020/12/22 00:36:56;;;;;;;27.55;3.70;;;3.20;99.90;;;;;;4979741;28;20215;-77
2020/12/22 00:39:22;;;;;;;29.58;3.83;;;3.30;99.90;;;;;;4980685;28;20239;-78
2020/12/22 00:41:55;;;;;;;19.88;3.67;;;3.30;99.90;;;;;;4979422;28;20211;-78
2020/12/22 00:44:21;;;;;;;25.08;3.05;;;3.30;99.90;;;;;;4977006;28;20200;-78
2020/12/22 00:46:47;;;;;;;12.85;2.75;;;3.30;99.90;;;;;;4979859;28;20686;-77
2020/12/22 00:49:13;;;;;;;24.50;4.00;;;3.30;99.90;;;;;;4980684;28;20199;-77
2020/12/22 00:51:39;;;;;;;33.45;4.25;;;3.30;99.90;;;;;;4977763;28;20286;-77
2020/12/22 00:54:05;;;;;;;13.60;3.83;;;3.40;99.90;;;;;;4978998;28;20686;-77
2020/12/22 00:56:31;;;;;;;19.90;4.38;;;3.50;99.90;;;;;;4978602;28;20249;-77
2020/12/22 00:58:56;;;;;;;32.38;4.70;;;3.60;99.90;;;;;;4978516;28;20258;-78
2020/12/22 01:01:22;;;;;;;32.10;4.15;;;3.60;99.90;;;;;;4978762;28;20207;-78
2020/12/22 01:03:48;;;;;;;22.25;4.35;;;3.70;99.90;;;;;;4973577;28;20227;-77
2020/12/22 01:06:15;;;;;;;22.17;4.30;;;3.70;99.90;;;;;;4978695;28;20199;-78
2020/12/22 01:08:42;;;;;;;19.70;4.13;;;3.80;99.90;;;;;;4981003;28;20207;-77
2020/12/22 01:11:07;;;;;;;20.27;4.43;;;3.80;99.90;;;;;;4978371;28;20219;-77
2020/12/22 01:13:33;;;;;;;17.13;4.38;;;3.80;99.90;;;;;;4978859;28;20242;-78
2020/12/22 01:15:59;;;;;;;13.40;3.80;;;3.90;99.90;;;;;;4977175;28;20210;-79
2020/12/22 01:18:25;;;;;;;16.98;4.03;;;3.80;99.90;;;;;;4980968;28;20810;-78
2020/12/22 01:20:50;;;;;;;22.15;4.18;;;3.80;99.90;;;;;;4980281;28;20245;-77
2020/12/22 01:23:17;;;;;;;20.13;3.90;;;3.80;99.90;;;;;;4979920;28;20204;-77
2020/12/22 01:25:42;;;;;;;25.08;3.88;;;3.70;99.90;;;;;;4975648;28;20214;-77
2020/12/22 01:28:09;;;;;;;20.00;4.13;;;3.80;99.90;;;;;;4979654;28;20199;-77
2020/12/22 01:30:38;;;;;;;20.17;4.03;;;3.80;99.90;;;;;;4977604;28;20192;-78
2020/12/22 01:33:05;;;;;;;21.13;4.25;;;3.80;99.90;;;;;;4979300;28;20996;-78
2020/12/22 01:35:31;;;;;;;18.85;4.63;;;3.80;99.90;;;;;;4979622;28;20203;-77
2020/12/22 01:37:56;;;;;;;19.15;4.82;;;3.80;99.90;;;;;;4980434;28;20211;-78
2020/12/22 01:40:22;;;;;;;23.92;4.57;;;3.90;99.90;;;;;;4979325;28;20656;-77
2020/12/22 01:42:48;;;;;;;21.15;4.22;;;3.90;99.90;;;;;;4977621;28;20208;-77
2020/12/22 01:45:14;;;;;;;11.02;4.07;;;3.90;99.90;;;;;;4972860;28;20211;-77
2020/12/22 01:47:48;;;;;;;18.02;4.07;;;3.80;99.90;;;;;;4979627;28;20226;-77
2020/12/22 01:50:16;;;;;;;16.58;4.50;;;3.90;99.90;;;;;;4979980;28;20219;-78
2020/12/22 01:52:42;;;;;;;20.40;4.43;;;3.90;99.90;;;;;;4977273;28;20207;-78
2020/12/22 01:55:08;;;;;;;13.63;3.85;;;3.90;99.90;;;;;;4975215;28;20204;-77
2020/12/22 01:57:34;;;;;;;20.73;3.90;;;3.90;99.90;;;;;;4981469;28;20736;-78
2020/12/22 02:00:00;;;;;;;11.32;3.17;;;3.90;99.90;;;;;;4976672;28;20199;-77
2020/12/22 02:02:26;;;;;;;12.07;2.95;;;4.00;99.90;;;;;;4977449;28;20206;-77
2020/12/22 02:04:53;;;;;;;9.63;3.08;;;4.00;99.90;;;;;;4979060;28;20329;-78
2020/12/22 02:07:19;;;;;;;8.27;2.70;;;4.00;99.90;;;;;;4982801;28;20221;-77
2020/12/22 02:09:49;;;;;;;10.30;3.38;;;4.00;99.90;;;;;;4979850;28;20253;-78
2020/12/22 02:12:17;;;;;;;14.77;2.85;;;4.00;99.90;;;;;;4984109;28;20705;-77
2020/12/22 02:14:43;;;;;;;10.15;2.72;;;4.00;99.90;;;;;;4979186;28;20208;-77
2020/12/22 02:17:09;;;;;;;8.98;2.50;;;4.00;99.90;;;;;;4978068;28;20666;-77
2020/12/22 02:19:36;;;;;;;5.45;2.20;;;3.90;99.90;;;;;;4980872;28;20215;-77
2020/12/22 02:22:02;;;;;;;11.95;2.55;;;3.90;99.90;;;;;;4977943;28;20191;-77
2020/12/22 02:24:30;;;;;;;5.80;2.50;;;3.90;99.90;;;;;;4982648;28;20310;-77
2020/12/22 02:26:56;;;;;;;7.38;2.35;;;4.00;99.90;;;;;;4986780;28;20569;-76
2020/12/22 02:29:23;;;;;;;5.65;2.30;;;4.00;99.90;;;;;;4983793;28;20195;-77
2020/12/22 02:31:48;;;;;;;20.52;2.90;;;4.10;99.90;;;;;;4980755;28;20208;-76
2020/12/22 02:34:14;;;;;;;14.05;2.45;;;4.10;99.90;;;;;;4983207;28;20356;-77
2020/12/22 02:36:40;;;;;;;6.10;2.40;;;4.10;99.90;;;;;;4979421;28;20230;-77
2020/12/22 02:39:05;;;;;;;8.65;3.03;;;4.10;99.90;;;;;;4981573;28;20274;-76
2020/12/22 02:41:31;;;;;;;13.45;2.65;;;4.10;99.90;;;;;;4980549;28;20200;-78
2020/12/22 02:43:57;;;;;;;15.65;2.72;;;4.10;99.90;;;;;;4983231;28;20259;-77
2020/12/22 02:46:23;;;;;;;14.95;2.55;;;4.10;99.90;;;;;;4979797;28;20206;-77
2020/12/22 02:48:48;;;;;;;12.55;3.22;;;4.10;99.90;;;;;;4978763;28;21002;-78
2020/12/22 02:51:14;;;;;;;7.18;2.78;;;4.10;99.90;;;;;;4983555;28;20230;-77
2020/12/22 02:53:40;;;;;;;12.32;2.63;;;4.20;99.90;;;;;;4979530;28;20199;-77
2020/12/22 02:56:05;;;;;;;5.95;2.60;;;4.20;99.90;;;;;;4978696;28;20287;-77
2020/12/22 02:58:31;;;;;;;11.90;2.80;;;4.20;99.90;;;;;;4977326;28;20697;-77
2020/12/22 03:00:57;;;;;;;7.82;2.40;;;4.30;99.90;;;;;;4981715;28;21286;-77
2020/12/22 03:03:22;;;;;;;11.23;2.80;;;4.30;99.90;;;;;;4977031;28;20218;-77
2020/12/22 03:05:48;;;;;;;9.98;2.92;;;4.20;99.90;;;;;;4980035;28;20600;-76
2020/12/22 03:08:14;;;;;;;4.20;2.40;;;4.30;99.90;;;;;;4979296;28;20645;-76
2020/12/22 03:10:39;;;;;;;10.40;2.75;;;4.30;99.90;;;;;;4979422;28;20203;-76
2020/12/22 03:13:05;;;;;;;8.63;2.53;;;4.30;99.90;;;;;;4977249;28;20203;-78
2020/12/22 03:15:31;;;;;;;12.48;2.60;;;4.30;99.90;;;;;;4981954;28;20302;-77
2020/12/22 03:17:57;;;;;;;7.63;2.83;;;4.30;99.90;;;;;;4977086;28;20207;-77
2020/12/22 03:20:24;;;;;;;7.15;2.40;;;4.30;99.90;;;;;;4975331;28;20192;-77
2020/12/22 03:22:50;;;;;;;8.77;2.67;;;4.20;99.90;;;;;;4983104;28;20310;-77
2020/12/22 03:25:16;;;;;;;6.70;2.40;;;4.20;99.90;;;;;;4980967;28;20208;-77
2020/12/22 03:27:41;;;;;;;12.05;3.10;;;4.20;99.90;;;;;;4981161;28;20245;-76
2020/12/22 03:30:11;;;;;;;6.65;2.47;;;4.20;99.90;;;;;;4978240;28;20639;-77
2020/12/22 03:32:37;;;;;;;8.63;2.38;;;4.30;99.90;;;;;;4981886;28;20199;-77
2020/12/22 03:35:05;;;;;;;14.98;2.90;;;4.30;99.90;;;;;;4983112;28;20770;-76
2020/12/22 03:37:31;;;;;;;14.18;2.60;;;4.30;99.90;;;;;;4983799;28;20733;-77
2020/12/22 03:40:00;;;;;;;8.57;2.30;;;4.30;99.90;;;;;;4980365;28;20744;-76
2020/12/22 03:42:26;;;;;;;7.07;2.40;;;4.30;99.90;;;;;;4981166;28;20208;-76
2020/12/22 03:44:52;;;;;;;9.63;2.67;;;4.30;99.90;;;;;;4973076;28;20223;-76
2020/12/22 03:47:18;;;;;;;9.02;2.60;;;4.30;99.90;;;;;;4981489;28;20200;-76
2020/12/22 03:49:44;;;;;;;9.48;2.22;;;4.30;99.90;;;;;;4980053;28;21162;-77
2020/12/22 03:52:10;;;;;;;5.63;2.50;;;4.40;99.90;;;;;;4980153;28;20200;-76
2020/12/22 03:54:36;;;;;;;9.65;2.42;;;4.30;99.90;;;;;;4975827;28;20195;-77
2020/12/22 03:57:02;;;;;;;5.07;2.30;;;4.30;99.90;;;;;;4981003;28;20701;-76
2020/12/22 03:59:28;;;;;;;11.20;2.63;;;4.30;99.90;;;;;;4990327;28;20678;-78
2020/12/22 04:01:54;;;;;;;15.07;2.67;;;4.30;99.90;;;;;;4976058;28;20250;-78
2020/12/22 04:04:21;;;;;;;11.13;2.60;;;4.30;99.90;;;;;;4976530;28;20232;-78
2020/12/22 04:06:47;;;;;;;5.93;2.38;;;4.30;99.90;;;;;;4976421;28;20210;-77
2020/12/22 04:09:13;;;;;;;11.10;2.80;;;4.30;99.90;;;;;;4969827;28;20573;-77
2020/12/22 04:11:42;;;;;;;6.43;2.60;;;4.30;99.90;;;;;;4977491;28;20242;-77
2020/12/22 04:14:09;;;;;;;11.85;2.80;;;4.40;99.90;;;;;;4976772;28;20257;-78
2020/12/22 04:16:36;;;;;;;8.35;2.95;;;4.40;99.90;;;;;;4981483;28;20946;-77
2020/12/22 04:19:02;;;;;;;8.63;2.70;;;4.40;99.90;;;;;;4976683;28;20199;-76
2020/12/22 04:21:28;;;;;;;7.93;2.50;;;4.40;99.90;;;;;;4978290;28;20211;-78
2020/12/22 04:23:54;;;;;;;8.60;2.53;;;4.40;99.90;;;;;;4981145;28;20192;-77
2020/12/22 04:26:20;;;;;;;9.25;2.50;;;4.40;99.90;;;;;;4981304;28;20263;-77
2020/12/22 04:28:46;;;;;;;6.78;2.67;;;4.40;99.90;;;;;;4976606;28;20199;-78
2020/12/22 04:31:12;;;;;;;10.85;2.60;;;4.40;99.90;;;;;;4976173;28;20200;-77
2020/12/22 04:33:38;;;;;;;5.97;2.35;;;4.40;99.90;;;;;;4982401;28;20732;-76
2020/12/22 04:36:04;;;;;;;9.02;2.58;;;4.40;99.90;;;;;;4981662;28;20250;-76
2020/12/22 04:38:31;;;;;;;9.13;3.17;;;4.40;99.90;;;;;;4978095;28;20210;-76
2020/12/22 04:41:01;;;;;;;7.10;2.60;;;4.40;99.90;;;;;;4983630;28;20902;-77
2020/12/22 04:43:28;;;;;;;10.13;2.88;;;4.40;99.90;;;;;;4980234;28;20290;-76
2020/12/22 04:46:00;;;;;;;9.48;2.75;;;4.40;99.90;;;;;;4981346;28;20262;-77
2020/12/22 04:48:29;;;;;;;8.00;2.60;;;4.30;99.90;;;;;;4977515;28;20203;-77
2020/12/22 04:50:55;;;;;;;6.72;2.40;;;4.30;99.90;;;;;;4983416;28;20199;-76
2020/12/22 04:53:21;;;;;;;7.22;2.55;;;4.40;99.90;;;;;;4984475;28;20219;-77
2020/12/22 04:55:46;;;;;;;9.02;2.65;;;4.40;99.90;;;;;;4983884;28;20211;-76
2020/12/22 04:58:12;;;;;;;9.48;2.58;;;4.30;99.90;;;;;;4983545;28;20234;-77
2020/12/22 05:00:38;;;;;;;8.65;2.75;;;4.30;99.90;;;;;;4980847;28;20200;-76
2020/12/22 05:03:05;;;;;;;7.72;2.58;;;4.40;99.90;;;;;;4977767;28;20210;-76
2020/12/22 05:05:30;;;;;;;11.25;2.92;;;4.30;99.90;;;;;;4974899;28;20919;-77
2020/12/22 05:07:56;;;;;;;4.20;2.40;;;4.30;99.90;;;;;;4976018;28;20296;-77
2020/12/22 05:10:24;;;;;;;8.10;2.42;;;4.40;99.90;;;;;;4980185;28;20948;-76
2020/12/22 05:12:50;;;;;;;5.40;2.20;;;4.40;99.90;;;;;;4978801;28;20214;-77
2020/12/22 05:15:16;;;;;;;5.07;2.08;;;4.40;99.90;;;;;;4983544;28;20718;-76
2020/12/22 05:17:43;;;;;;;4.03;2.33;;;4.40;99.90;;;;;;4985109;28;20203;-77
2020/12/22 05:20:13;;;;;;;10.57;2.55;;;4.40;99.90;;;;;;4985075;28;20211;-75
2020/12/22 05:22:39;;;;;;;7.38;2.20;;;4.40;99.90;;;;;;4976065;28;20204;-78
2020/12/22 05:25:05;;;;;;;14.48;1.90;;;4.40;99.90;;;;;;4974775;28;20207;-77
2020/12/22 05:27:32;;;;;;;9.10;2.03;;;4.40;99.90;;;;;;4973123;28;20195;-76
2020/12/22 05:30:04;;;;;;;12.20;2.60;;;4.40;99.90;;;;;;4980258;28;20253;-76
2020/12/22 05:32:31;;;;;;;8.52;2.17;;;4.30;99.90;;;;;;4973306;28;20200;-76
2020/12/22 05:34:58;;;;;;;5.50;2.30;;;4.30;99.90;;;;;;4973849;28;20800;-75
2020/12/22 05:37:25;;;;;;;5.40;2.10;;;4.40;99.90;;;;;;4984867;28;20963;-76
2020/12/22 05:39:51;;;;;;;3.47;2.20;;;4.30;99.90;;;;;;4969019;28;20910;-76
2020/12/22 05:42:19;;;;;;;4.80;1.90;;;4.30;99.90;;;;;;4972620;28;20238;-76
2020/12/22 05:44:51;;;;;;;7.22;2.70;;;4.30;99.90;;;;;;4969657;28;20203;-76
2020/12/22 05:47:19;;;;;;;11.25;2.97;;;4.40;99.90;;;;;;4982848;28;20318;-75
2020/12/22 05:50:04;;;;;;;10.88;2.22;;;4.40;99.90;;;;;;4970667;28;20204;-76
2020/12/22 05:52:31;;;;;;;6.95;1.90;;;4.30;99.90;;;;;;4974016;28;20264;-75
2020/12/22 05:54:58;;;;;;;13.00;2.30;;;4.30;99.90;;;;;;4982818;28;20199;-76
2020/12/22 05:57:32;;;;;;;14.35;2.40;;;4.30;99.90;;;;;;4980961;28;20266;-76
2020/12/22 06:00:15;;;;;;;7.15;2.20;;;4.30;99.90;;;;;;4984534;28;20858;-76
2020/12/22 06:02:42;;;;;;;9.80;2.53;;;4.20;99.90;;;;;;4979058;28;20194;-76
2020/12/22 06:05:08;;;;;;;7.40;2.17;;;4.30;99.90;;;;;;4980880;28;20223;-76
2020/12/22 06:07:33;;;;;;;10.05;2.35;;;4.20;99.90;;;;;;4954603;28;20199;-76
2020/12/22 06:09:59;;;;;;;11.75;2.50;;;4.20;99.90;;;;;;4976744;28;20707;-76
2020/12/22 06:12:25;;;;;;;6.85;2.40;;;4.30;99.90;;;;;;4984880;28;20641;-76
2020/12/22 06:14:54;;;;;;;6.82;2.42;;;4.30;99.90;;;;;;4981293;28;20648;-77
2020/12/22 06:17:21;;;;;;;6.00;2.40;;;4.20;99.90;;;;;;4978643;28;20226;-76
2020/12/22 06:19:48;;;;;;;8.30;2.63;;;4.20;99.90;;;;;;4981349;28;20200;-76
2020/12/22 06:22:17;;;;;;;6.75;2.22;;;4.30;99.90;;;;;;4973865;28;20224;-77
2020/12/22 06:24:44;;;;;;;7.20;2.65;;;4.20;99.90;;;;;;4980355;28;20216;-77
2020/12/22 06:27:11;;;;;;;16.38;2.70;;;4.20;99.90;;;;;;4975052;28;20200;-76
2020/12/22 06:29:45;;;;;;;9.60;2.45;;;4.20;99.90;;;;;;4976848;28;20203;-76
2020/12/22 06:32:16;;;;;;;7.47;2.88;;;4.20;99.90;;;;;;4982594;28;20204;-77
2020/12/22 06:34:44;;;;;;;7.80;2.65;;;4.20;99.90;;;;;;4982945;28;20226;-76
2020/12/22 06:37:10;;;;;;;7.03;2.20;;;4.20;99.90;;;;;;4976649;28;20195;-76
2020/12/22 06:39:46;;;;;;;8.73;2.50;;;4.20;99.90;;;;;;4980330;28;20207;-76
2020/12/22 06:42:32;;;;;;;5.68;2.72;;;4.10;99.90;;;;;;4980795;28;20218;-76
2020/12/22 06:45:30;;;;;;;7.45;2.63;;;4.20;99.90;;;;;;4968945;28;20250;-75
2020/12/22 06:47:56;;;;;;;7.15;2.28;;;4.20;99.90;;;;;;4974335;28;20191;-76
2020/12/22 06:50:48;;;;;;;3.60;2.33;;;4.20;99.90;;;;;;4982209;28;20670;-76
2020/12/22 06:53:34;;;;;;;6.97;2.42;;;4.20;99.90;;;;;;4964984;28;20287;-76
2020/12/22 06:56:00;;;;;;;9.60;2.58;;;4.20;99.90;;;;;;4981636;28;20270;-76
2020/12/22 06:58:42;;;;;;;10.63;2.53;;;4.10;99.90;;;;;;4978272;28;20235;-77
2020/12/22 07:01:46;;;;;;;9.80;2.65;;;4.10;99.90;;;;;;4982390;28;20697;-77
2020/12/22 07:04:13;;;;;;;7.78;2.78;;;4.20;99.90;;;;;;4949605;28;20223;-78
2020/12/22 07:06:47;;;;;;;5.93;2.70;;;4.20;99.90;;;;;;4980529;28;20200;-76
2020/12/22 07:09:14;;;;;;;10.63;2.90;;;4.10;99.90;;;;;;4980758;28;20319;-77
2020/12/22 07:11:40;;;;;;;10.35;2.50;;;4.10;99.90;;;;;;4975113;28;20199;-77
2020/12/22 07:14:06;;;;;;;13.48;2.60;;;4.00;99.90;;;;;;4985903;28;20199;-77
2020/12/22 07:16:55;;;;;;;8.75;2.90;;;4.00;99.90;;;;;;4985073;28;20286;-77
2020/12/22 07:19:24;;;;;;;7.80;3.08;;;4.00;99.90;;;;;;4982737;28;20204;-77
2020/12/22 07:21:51;;;;;;;6.85;2.47;;;4.00;99.90;;;;;;4977904;28;20200;-76
2020/12/22 07:24:17;;;;;;;9.32;2.75;;;4.00;99.90;;;;;;4983610;28;20207;-77
2020/12/22 07:26:44;;;;;;;8.52;2.60;;;4.10;99.90;;;;;;4983905;28;20665;-76
2020/12/22 07:29:11;;;;;;;13.50;2.70;;;4.00;99.90;;;;;;4976254;28;20619;-77
2020/12/22 07:31:37;;;;;;;4.22;2.63;;;4.00;99.90;;;;;;4984501;28;20212;-78
2020/12/22 07:34:07;;;;;;;10.75;2.67;;;4.00;99.90;;;;;;4982363;28;20211;-77
2020/12/22 07:36:33;;;;;;;6.57;2.50;;;4.00;99.90;;;;;;4981567;28;20219;-77
2020/12/22 07:39:14;;;;;;;8.45;2.60;;;4.00;99.90;;;;;;4980798;28;20199;-76
2020/12/22 07:41:41;;;;;;;17.90;2.80;;;4.00;99.90;;;;;;4978511;28;20207;-77
2020/12/22 07:44:11;;;;;;;11.38;4.68;;;4.00;99.90;;;;;;4983478;28;20206;-77
2020/12/22 07:46:37;;;;;;;12.90;3.13;;;4.00;99.90;;;;;;4981814;28;20199;-77
2020/12/22 07:49:08;;;;;;;12.25;3.13;;;4.10;99.90;;;;;;4976078;28;20254;-77
2020/12/22 07:51:34;;;;;;;10.15;3.83;;;4.10;99.90;;;;;;4981005;28;20694;-76
2020/12/22 07:54:01;;;;;;;10.40;2.97;;;4.10;99.90;;;;;;4980096;28;20196;-77
2020/12/22 07:56:29;;;;;;;10.88;3.00;;;4.10;99.90;;;;;;4980677;28;20215;-77
2020/12/22 07:58:56;;;;;;;6.13;2.47;;;4.00;99.90;;;;;;4980369;28;20200;-77
2020/12/22 08:01:23;;;;;;;6.95;3.00;;;4.10;99.90;;;;;;4979171;28;20195;-76
2020/12/22 08:03:49;;;;;;;8.77;2.63;;;4.10;99.90;;;;;;4959821;28;20230;-77
2020/12/22 08:06:15;;;;;;;11.45;3.22;;;4.00;99.90;;;;;;4981393;28;20929;-77
2020/12/22 08:08:41;;;;;;;9.60;2.92;;;4.00;99.90;;;;;;4983323;28;20250;-76
2020/12/22 08:11:07;;;;;;;5.07;2.47;;;4.00;99.90;;;;;;4977291;28;20320;-76
2020/12/22 08:13:37;;;;;;;13.90;3.42;;;4.00;99.90;;;;;;4981508;28;20244;-77
2020/12/22 08:16:03;;;;;;;8.57;3.28;;;4.00;99.90;;;;;;4984325;28;20562;-77
2020/12/22 08:18:32;;;;;;;11.98;2.95;;;4.00;99.90;;;;;;4980125;28;20199;-78
2020/12/22 08:21:00;;;;;;;10.80;3.17;;;3.90;99.90;;;;;;4981946;28;20200;-79
2020/12/22 08:23:29;;;;;;;9.23;2.97;;;4.00;99.90;;;;;;4978942;28;21283;-77
2020/12/22 08:25:56;;;;;;;9.80;3.08;;;4.00;99.90;;;;;;4982964;28;20207;-76
2020/12/22 08:28:30;;;;;;;9.02;3.00;;;3.90;99.90;;;;;;4979613;28;20191;-77
2020/12/22 08:31:08;;;;;;;10.27;3.55;;;3.90;99.90;;;;;;4979706;28;20606;-77
2020/12/22 08:33:35;;;;;;;9.50;3.20;;;3.90;99.90;;;;;;4973795;28;20755;-77
2020/12/22 08:36:01;;;;;;;14.75;3.63;;;3.90;99.90;;;;;;4981885;28;20256;-76
2020/12/22 08:38:27;;;;;;;10.60;3.58;;;3.80;99.90;;;;;;4982045;28;20208;-77
2020/12/22 08:40:55;;;;;;;8.25;3.20;;;3.70;99.90;;;;;;4980057;28;20199;-78
2020/12/22 08:43:25;;;;;;;9.45;3.50;;;3.70;99.90;;;;;;4978377;28;20275;-78
2020/12/22 08:45:51;;;;;;;8.35;3.40;;;3.70;99.90;;;;;;4976026;28;20298;-79
2020/12/22 08:48:17;;;;;;;16.27;4.70;;;3.70;99.90;;;;;;4981922;28;20674;-77
2020/12/22 08:50:47;;;;;;;12.05;4.20;;;3.70;99.90;;;;;;4977503;28;20227;-77
2020/12/22 08:53:17;;;;;;;12.10;3.83;;;3.70;99.90;;;;;;4978856;28;20211;-78
2020/12/22 08:55:42;;;;;;;13.93;4.35;;;3.70;99.90;;;;;;4980204;28;20199;-78
2020/12/22 08:58:08;;;;;;;8.55;4.00;;;3.70;99.90;;;;;;4978775;28;20815;-76
2020/12/22 09:00:34;;;;;;;10.20;3.97;;;3.70;99.90;;;;;;4979569;28;20227;-77
2020/12/22 09:03:02;;;;;;;7.78;4.05;;;3.80;99.90;;;;;;4981345;28;20203;-77
2020/12/22 09:05:31;;;;;;;17.73;4.05;;;3.70;99.90;;;;;;4976781;28;20246;-78
2020/12/22 09:08:00;;;;;;;11.95;3.78;;;3.70;99.90;;;;;;4979921;28;20191;-77
2020/12/22 09:10:26;;;;;;;10.13;4.20;;;3.60;99.90;;;;;;4980205;28;20578;-78
2020/12/22 09:12:52;;;;;;;10.25;4.70;;;3.60;99.90;;;;;;4977814;28;20246;-77
2020/12/22 09:15:18;;;;;;;13.10;4.03;;;3.60;99.90;;;;;;4974523;28;20243;-79
2020/12/22 09:17:44;;;;;;;12.02;3.72;;;3.60;99.90;;;;;;4974869;28;20231;-77
2020/12/22 09:20:17;;;;;;;9.60;4.13;;;3.60;99.90;;;;;;4980439;28;20195;-76
2020/12/22 09:22:42;;;;;;;9.35;3.17;;;3.60;99.90;;;;;;4975947;28;20196;-76
2020/12/22 09:25:08;;;;;;;11.13;3.65;;;3.60;99.90;;;;;;4979603;28;20740;-76
2020/12/22 09:27:39;;;;;;;7.63;3.70;;;3.60;99.90;;;;;;4979998;28;20556;-77
2020/12/22 09:30:07;;;;;;;8.93;3.67;;;3.60;99.90;;;;;;4982829;28;20191;-76
2020/12/22 09:32:33;;;;;;;10.77;4.30;;;3.60;99.90;;;;;;4980869;28;20199;-76
2020/12/22 09:34:58;;;;;;;8.13;3.72;;;3.60;99.90;;;;;;4980217;28;20199;-77
2020/12/22 09:37:26;;;;;;;7.32;3.63;;;3.60;99.90;;;;;;4983274;28;20867;-76
2020/12/22 09:39:53;;;;;;;11.13;4.13;;;3.60;99.90;;;;;;4982112;28;20266;-77
2020/12/22 09:42:23;;;;;;;12.82;4.25;;;3.60;99.90;;;;;;4976074;28;20208;-77
2020/12/22 09:44:49;;;;;;;7.20;3.65;;;3.60;99.90;;;;;;4973493;28;20211;-76
2020/12/22 09:47:15;;;;;;;8.48;3.80;;;3.60;99.90;;;;;;4977006;28;20207;-77
2020/12/22 09:49:41;;;;;;;7.63;3.63;;;3.70;99.90;;;;;;4979854;28;20215;-78
2020/12/22 09:52:07;;;;;;;14.95;3.65;;;3.70;99.90;;;;;;4980518;28;20196;-77
2020/12/22 09:54:32;;;;;;;9.25;4.07;;;3.70;99.90;;;;;;4973149;28;20204;-77
2020/12/22 09:56:58;;;;;;;11.23;3.25;;;3.70;99.90;;;;;;4979127;28;20204;-77
2020/12/22 09:59:24;;;;;;;10.40;4.22;;;3.70;99.90;;;;;;4979848;28;20215;-77
2020/12/22 10:01:51;;;;;;;11.95;4.18;;;3.60;99.90;;;;;;4980847;28;20199;-79
2020/12/22 10:04:17;;;;;;;10.70;3.67;;;3.60;99.90;;;;;;4976163;28;20684;-77
2020/12/22 10:06:43;;;;;;;11.30;4.10;;;3.60;99.90;;;;;;4976032;28;20188;-77
2020/12/22 10:09:10;;;;;;;7.47;3.40;;;3.70;99.90;;;;;;4977177;28;20296;-77
2020/12/22 10:11:37;;;;;;;6.63;3.38;;;3.70;99.90;;;;;;4979318;28;20561;-77
2020/12/22 10:14:04;;;;;;;8.10;2.90;;;3.70;99.90;;;;;;4971528;28;20202;-78
2020/12/22 10:16:30;;;;;;;8.18;3.22;;;3.70;99.90;;;;;;4973324;28;20756;-76
2020/12/22 10:18:55;;;;;;;5.85;3.10;;;3.80;99.90;;;;;;4978650;28;20219;-76
2020/12/22 10:21:21;;;;;;;6.32;3.10;;;3.80;99.90;;;;;;4977363;28;20199;-76
2020/12/22 10:23:48;;;;;;;6.38;2.70;;;3.80;99.90;;;;;;4978377;28;20222;-78
2020/12/22 10:26:19;;;;;;;5.07;2.85;;;3.80;99.90;;;;;;4977941;28;20207;-77
2020/12/22 10:28:47;;;;;;;3.92;2.40;;;3.80;99.90;;;;;;4977142;28;20220;-76
2020/12/22 10:31:17;;;;;;;8.85;3.20;;;3.80;99.90;;;;;;4985952;28;20249;-77
2020/12/22 10:33:43;;;;;;;6.63;2.60;;;3.80;99.90;;;;;;4981009;28;20223;-76
2020/12/22 10:36:17;;;;;;;10.05;2.85;;;3.80;99.90;;;;;;4980693;28;20192;-76
2020/12/22 10:38:43;;;;;;;5.72;3.22;;;3.80;99.90;;;;;;4979358;28;20292;-76
2020/12/22 10:41:08;;;;;;;7.53;3.00;;;3.80;99.90;;;;;;4977841;28;20728;-76
2020/12/22 10:43:35;;;;;;;5.80;3.20;;;3.90;99.90;;;;;;4978682;28;20717;-77
2020/12/22 10:46:03;;;;;;;7.28;2.97;;;3.80;99.90;;;;;;4981945;28;20212;-77
2020/12/22 10:48:30;;;;;;;5.43;2.90;;;3.90;99.90;;;;;;4984554;28;20259;-77
2020/12/22 10:50:56;;;;;;;4.97;2.80;;;3.80;99.90;;;;;;4989103;28;20198;-75
2020/12/22 10:53:22;;;;;;;11.57;3.22;;;3.90;99.90;;;;;;4980042;28;20938;-77
2020/12/22 10:55:48;;;;;;;7.78;2.50;;;3.90;99.90;;;;;;4980237;28;20200;-76
2020/12/22 10:58:14;;;;;;;9.55;3.10;;;3.90;99.90;;;;;;4977867;28;20226;-77
2020/12/22 11:00:40;;;;;;;6.43;2.80;;;4.00;99.90;;;;;;4985136;28;20195;-77
2020/12/22 11:03:08;;;;;;;4.28;2.30;;;4.00;99.90;;;;;;4984173;28;20699;-77
2020/12/22 11:08:20;;;;;;;8.68;2.35;;;3.90;99.90;;;;;;4983506;28;20218;-77
2020/12/22 11:10:46;;;;;;;3.70;2.42;;;3.90;99.90;;;;;;4980873;28;20200;-77
2020/12/22 11:13:12;;;;;;;3.95;2.38;;;3.90;99.90;;;;;;4980420;28;20200;-77
2020/12/22 11:15:37;;;;;;;4.60;2.40;;;3.90;99.90;;;;;;4981053;28;20231;-77
2020/12/22 11:18:03;;;;;;;7.82;2.55;;;4.00;99.90;;;;;;4979591;28;20215;-77
2020/12/22 11:20:29;;;;;;;4.93;2.35;;;4.00;99.90;;;;;;4984643;28;20203;-77
2020/12/22 11:22:55;;;;;;;4.15;2.25;;;4.00;99.90;;;;;;4981428;28;20294;-77
2020/12/22 11:25:20;;;;;;;4.15;2.42;;;4.00;99.90;;;;;;4978434;28;20217;-77
2020/12/22 11:27:46;;;;;;;6.03;2.53;;;3.90;99.90;;;;;;4984512;28;20202;-76
2020/12/22 11:30:13;;;;;;;6.28;2.42;;;4.00;99.90;;;;;;4983992;28;20300;-79
2020/12/22 11:32:40;;;;;;;7.75;2.28;;;4.00;99.90;;;;;;4981692;28;20208;-78
2020/12/22 11:35:06;;;;;;;3.25;2.03;;;4.00;99.90;;;;;;4983871;28;20230;-76
2020/12/22 11:37:32;;;;;;;3.80;2.15;;;4.00;99.90;;;;;;4981397;28;20703;-78
2020/12/22 11:39:58;;;;;;;6.95;2.25;;;4.00;99.90;;;;;;4980432;28;20200;-77
2020/12/22 11:42:23;;;;;;;4.25;2.00;;;4.00;99.90;;;;;;4985248;28;20208;-77
2020/12/22 11:44:49;;;;;;;3.40;1.98;;;4.10;99.90;;;;;;4981907;28;20208;-79
2020/12/22 11:47:16;;;;;;;2.80;1.90;;;4.10;99.90;;;;;;4982159;28;20191;-77
2020/12/22 11:49:42;;;;;;;5.05;2.40;;;4.10;99.90;;;;;;4984664;28;20255;-76
2020/12/22 11:52:08;;;;;;;4.63;2.35;;;4.00;99.90;;;;;;4982704;28;20202;-78
2020/12/22 11:54:35;;;;;;;4.90;2.42;;;4.00;99.90;;;;;;4983623;28;20227;-77
2020/12/22 11:57:01;;;;;;;4.28;2.20;;;4.00;99.90;;;;;;4983194;28;20283;-77
2020/12/22 11:59:26;;;;;;;7.18;2.10;;;4.00;99.90;;;;;;4983396;28;20318;-77
2020/12/22 12:01:52;;;;;;;5.85;2.05;;;4.00;99.90;;;;;;4985260;28;20198;-77
2020/12/22 12:04:18;;;;;;;4.13;2.00;;;4.00;99.90;;;;;;4976771;28;20322;-77
2020/12/22 12:06:50;;;;;;;4.85;2.20;;;4.00;99.90;;;;;;4981546;28;20223;-78
2020/12/22 12:09:16;;;;;;;3.55;2.00;;;4.00;99.90;;;;;;4980181;28;20265;-78
2020/12/22 12:11:46;;;;;;;6.93;2.17;;;4.10;99.90;;;;;;4982557;28;20306;-78
2020/12/22 12:14:12;;;;;;;3.80;1.95;;;4.10;99.90;;;;;;4986503;28;20199;-77
2020/12/22 12:16:37;;;;;;;4.82;1.98;;;4.10;99.90;;;;;;4978737;28;20204;-77
2020/12/22 12:19:03;;;;;;;3.72;1.88;;;4.10;99.90;;;;;;4977866;28;20207;-78
2020/12/22 12:21:29;;;;;;;5.63;2.30;;;4.10;99.90;;;;;;4983169;28;20219;-77
2020/12/22 12:23:55;;;;;;;3.30;1.98;;;4.10;99.90;;;;;;4977801;28;20191;-77
2020/12/22 12:26:23;;;;;;;6.30;2.33;;;4.10;99.90;;;;;;4982939;28;20295;-77
2020/12/22 12:28:49;;;;;;;6.80;2.10;;;4.10;99.90;;;;;;4981558;28;20261;-76
2020/12/22 12:31:17;;;;;;;1.92;1.48;;;4.10;99.90;;;;;;4979649;28;20200;-77
2020/12/22 12:33:43;;;;;;;3.05;1.83;;;4.10;99.90;;;;;;4977621;28;20764;-77
2020/12/22 12:36:12;;;;;;;4.80;1.85;;;4.10;99.90;;;;;;4979029;28;20200;-78
2020/12/22 12:38:38;;;;;;;4.18;1.85;;;4.10;99.90;;;;;;4980111;28;20593;-77
2020/12/22 12:41:04;;;;;;;9.93;2.10;;;4.10;99.90;;;;;;4982765;28;20196;-78
2020/12/22 12:43:29;;;;;;;3.50;1.70;;;4.10;99.90;;;;;;4975165;28;20207;-78
2020/12/22 12:45:55;;;;;;;4.68;1.90;;;4.10;99.90;;;;;;4978739;28;20214;-79
2020/12/22 12:48:21;;;;;;;4.38;1.90;;;4.20;99.90;;;;;;4978206;28;20828;-77
2020/12/22 12:50:47;;;;;;;2.88;1.88;;;4.10;99.90;;;;;;4976765;28;20223;-78
2020/12/22 12:53:13;;;;;;;4.60;2.00;;;4.20;99.90;;;;;;4979812;28;20689;-77
2020/12/22 12:55:39;;;;;;;3.80;2.40;;;4.10;99.90;;;;;;4976399;28;20208;-78